Time;durP1;ratioP1;P1;durP2;ratioP2;P2;SDS_P1;SDS_P2;PMS_P1;PMS_P2;Temp;Humidity;BMP_temperature;BMP_pressure;BME280_temperature;BME280_humidity;BME280_pressure;Samples;Min_cycle;Max_cycle;Signal;HPM_P1;HPM_P2
2023/07/14 00:00:33;;;;;;;5.80;2.85;;;26.40;83.70;;;;;;10941555;32;20015;-73
2023/07/14 00:06:35;;;;;;;8.68;2.78;;;26.40;84.30;;;;;;10934642;32;20031;-73
2023/07/14 00:12:37;;;;;;;4.43;2.42;;;26.40;84.20;;;;;;10947423;32;20037;-73
2023/07/14 00:18:39;;;;;;;2.83;1.80;;;26.40;83.80;;;;;;10935014;32;20077;-73
2023/07/14 00:24:42;;;;;;;3.17;1.85;;;26.40;83.90;;;;;;10934771;32;20042;-73
2023/07/14 00:30:45;;;;;;;3.05;2.05;;;26.50;84.00;;;;;;10948540;32;20401;-73
2023/07/14 00:36:48;;;;;;;1.87;1.40;;;26.40;84.00;;;;;;10948265;32;20317;-73
2023/07/14 00:42:57;;;;;;;3.30;2.00;;;26.30;84.10;;;;;;10934071;32;20034;-73
2023/07/14 00:49:09;;;;;;;3.15;1.52;;;26.30;83.90;;;;;;10921863;32;20563;-73
2023/07/14 00:55:26;;;;;;;2.83;1.67;;;26.30;83.50;;;;;;10947579;32;20018;-73
2023/07/14 01:01:31;;;;;;;2.90;1.70;;;26.30;83.20;;;;;;10947384;32;20028;-73
2023/07/14 01:07:43;;;;;;;3.85;1.87;;;26.30;83.10;;;;;;10947313;32;20045;-73
2023/07/14 01:13:45;;;;;;;2.28;1.55;;;26.30;83.60;;;;;;10946170;32;20023;-73
2023/07/14 01:19:51;;;;;;;3.55;2.03;;;26.20;84.00;;;;;;10947651;32;20419;-73
2023/07/14 01:26:12;;;;;;;2.55;1.45;;;26.20;83.90;;;;;;10932736;32;20054;-73
2023/07/14 01:32:21;;;;;;;4.12;1.87;;;26.20;83.60;;;;;;10946537;32;20022;-73
2023/07/14 01:38:23;;;;;;;3.90;1.77;;;26.10;83.20;;;;;;10946878;32;20042;-73
2023/07/14 01:44:26;;;;;;;1.80;1.25;;;26.10;83.10;;;;;;10932010;32;20334;-73
2023/07/14 01:50:43;;;;;;;3.15;0.95;;;26.00;83.00;;;;;;10947145;32;20019;-73
2023/07/14 01:56:47;;;;;;;1.33;0.90;;;26.00;83.10;;;;;;10934022;32;20054;-73
2023/07/14 02:02:52;;;;;;;1.85;1.08;;;25.90;83.00;;;;;;10946654;32;20050;-73
2023/07/14 02:08:54;;;;;;;2.53;1.17;;;25.90;82.90;;;;;;10944864;32;20027;-73
2023/07/14 02:15:11;;;;;;;1.33;1.23;;;25.90;82.90;;;;;;10945003;32;20045;-73
2023/07/14 02:21:16;;;;;;;1.00;0.80;;;25.80;82.90;;;;;;10945955;32;20031;-73
2023/07/14 02:27:19;;;;;;;1.90;0.80;;;25.70;82.90;;;;;;10944886;32;20085;-73
2023/07/14 02:33:35;;;;;;;1.02;0.80;;;25.70;82.70;;;;;;10945602;32;20023;-73
2023/07/14 02:39:38;;;;;;;3.08;1.00;;;25.60;82.60;;;;;;10931193;32;20314;-73
2023/07/14 02:45:49;;;;;;;1.15;0.65;;;25.60;82.80;;;;;;10943042;32;20073;-74
2023/07/14 02:51:52;;;;;;;0.98;0.90;;;25.60;82.80;;;;;;10944130;32;20046;-74
2023/07/14 02:57:54;;;;;;;1.67;1.02;;;25.60;82.90;;;;;;10944633;32;20019;-73
2023/07/14 03:03:56;;;;;;;2.67;1.20;;;25.50;82.90;;;;;;10940602;32;20023;-73
2023/07/14 03:09:58;;;;;;;2.10;1.02;;;25.40;82.80;;;;;;10930764;32;20053;-74
2023/07/14 03:16:01;;;;;;;3.78;0.90;;;25.30;83.00;;;;;;10941588;32;20298;-74
2023/07/14 03:22:03;;;;;;;1.10;0.70;;;25.20;82.80;;;;;;10942561;32;20045;-74
2023/07/14 03:28:05;;;;;;;1.00;0.82;;;25.20;82.80;;;;;;10928594;32;20049;-74
2023/07/14 03:34:09;;;;;;;1.35;1.08;;;25.10;82.80;;;;;;10930068;32;20049;-74
2023/07/14 03:40:11;;;;;;;3.15;1.33;;;25.10;82.80;;;;;;10930040;32;20031;-73
2023/07/14 03:46:14;;;;;;;4.55;1.05;;;25.10;82.50;;;;;;10943177;32;20046;-73
2023/07/14 03:52:16;;;;;;;1.80;1.20;;;25.00;82.50;;;;;;10943082;32;20023;-73
2023/07/14 03:58:18;;;;;;;2.92;1.65;;;24.90;82.60;;;;;;10942264;32;20211;-73
2023/07/14 04:04:22;;;;;;;2.08;1.30;;;24.80;82.90;;;;;;10941473;32;20066;-73
2023/07/14 04:10:24;;;;;;;1.77;1.20;;;24.80;82.80;;;;;;10942681;32;20015;-73
2023/07/14 04:16:26;;;;;;;2.65;1.25;;;24.80;82.80;;;;;;10941973;32;20019;-73
2023/07/14 04:22:28;;;;;;;4.68;0.77;;;24.90;82.80;;;;;;10941800;32;20027;-74
2023/07/14 04:28:30;;;;;;;3.22;1.27;;;24.90;82.70;;;;;;10942088;32;20456;-74
2023/07/14 04:34:32;;;;;;;1.65;1.00;;;25.00;82.60;;;;;;10927426;32;20035;-74
2023/07/14 04:40:39;;;;;;;3.15;0.75;;;25.00;83.00;;;;;;10941575;32;20386;-74
2023/07/14 04:46:42;;;;;;;1.10;0.85;;;24.90;83.60;;;;;;10928589;32;20058;-74
2023/07/14 04:52:44;;;;;;;1.85;1.15;;;24.90;84.10;;;;;;10947872;32;20346;-74
2023/07/14 04:58:46;;;;;;;3.62;1.58;;;25.00;84.10;;;;;;10946654;32;20019;-74
2023/07/14 05:05:10;;;;;;;1.92;0.85;;;25.00;83.90;;;;;;10935371;32;20334;-73
2023/07/14 05:11:11;;;;;;;2.00;0.80;;;25.10;83.80;;;;;;10948454;32;20057;-73
2023/07/14 05:17:13;;;;;;;2.17;1.52;;;25.10;83.80;;;;;;10946975;32;20042;-73
2023/07/14 05:23:16;;;;;;;1.15;0.85;;;25.10;83.70;;;;;;10946674;32;20105;-73
2023/07/14 05:29:19;;;;;;;1.98;1.10;;;25.30;83.80;;;;;;10946226;32;20045;-73
2023/07/14 05:35:22;;;;;;;0.98;0.80;;;25.40;83.80;;;;;;10946347;32;20019;-73
2023/07/14 05:41:24;;;;;;;5.25;2.00;;;25.60;83.60;;;;;;10932563;32;20195;-73
2023/07/14 05:47:36;;;;;;;1.12;0.88;;;25.80;83.40;;;;;;10932222;32;20314;-73
2023/07/14 05:53:38;;;;;;;2.05;1.45;;;26.00;83.70;;;;;;10932114;32;20321;-73
2023/07/14 05:59:40;;;;;;;1.87;0.90;;;26.20;83.90;;;;;;10944707;32;20093;-73
2023/07/14 06:05:42;;;;;;;1.12;1.02;;;26.30;83.80;;;;;;10945123;32;20023;-73
2023/07/14 06:11:44;;;;;;;3.50;1.55;;;26.30;83.60;;;;;;10931502;32;20421;-73
2023/07/14 06:17:46;;;;;;;2.83;1.23;;;26.30;83.90;;;;;;10944705;32;20019;-73
2023/07/14 06:23:48;;;;;;;1.95;1.12;;;26.30;83.90;;;;;;10941168;32;20031;-73
2023/07/14 06:29:50;;;;;;;1.08;0.73;;;26.40;83.90;;;;;;10943075;32;20077;-73
2023/07/14 06:35:55;;;;;;;0.65;0.65;;;26.50;83.20;;;;;;10944090;32;20023;-73
2023/07/14 06:41:57;;;;;;;1.08;0.70;;;26.50;83.00;;;;;;10943905;32;20046;-73
2023/07/14 06:48:01;;;;;;;1.05;0.68;;;26.50;82.80;;;;;;10939879;32;20057;-73
2023/07/14 06:54:03;;;;;;;5.70;1.00;;;26.50;82.60;;;;;;10929352;32;20031;-73
2023/07/14 07:00:09;;;;;;;3.53;0.93;;;26.60;82.50;;;;;;10943140;32;20031;-73
2023/07/14 07:06:11;;;;;;;0.60;0.32;;;26.80;82.50;;;;;;10928870;32;20055;-73
2023/07/14 07:12:13;;;;;;;1.65;0.95;;;27.00;82.40;;;;;;10942102;32;20041;-72
2023/07/14 07:18:19;;;;;;;3.40;0.98;;;27.20;82.20;;;;;;10942575;32;20061;-73
2023/07/14 07:24:21;;;;;;;1.15;0.80;;;27.30;81.90;;;;;;10927716;32;20039;-72
2023/07/14 07:30:25;;;;;;;3.22;1.05;;;27.30;81.90;;;;;;10945288;27;20030;-73
2023/07/14 07:36:27;;;;;;;5.93;1.30;;;27.50;81.80;;;;;;10942092;32;20015;-72
2023/07/14 07:42:31;;;;;;;5.87;1.87;;;27.60;81.00;;;;;;10941872;32;20057;-74
2023/07/14 07:48:35;;;;;;;2.50;1.35;;;27.60;79.30;;;;;;10941677;32;20011;-74
2023/07/14 07:54:41;;;;;;;2.55;1.25;;;27.70;79.20;;;;;;10941659;32;20037;-73
2023/07/14 08:00:43;;;;;;;4.72;0.93;;;27.80;80.20;;;;;;10941437;32;20015;-73
2023/07/14 08:06:45;;;;;;;1.48;0.80;;;27.80;79.90;;;;;;10941341;32;20027;-73
2023/07/14 08:12:47;;;;;;;3.17;1.30;;;27.90;78.30;;;;;;10941137;32;20038;-73
2023/07/14 08:18:49;;;;;;;1.77;1.35;;;28.00;78.10;;;;;;10941117;32;20019;-74
2023/07/14 08:24:53;;;;;;;3.12;1.65;;;28.00;78.00;;;;;;10944265;32;20052;-72
2023/07/14 08:31:00;;;;;;;3.05;1.10;;;28.10;76.10;;;;;;10948493;32;20352;-74
2023/07/14 08:37:04;;;;;;;1.20;0.80;;;28.30;76.10;;;;;;10948248;32;20011;-74
2023/07/14 08:43:25;;;;;;;1.42;0.80;;;28.30;76.90;;;;;;10934056;32;20057;-73
2023/07/14 08:56:03;;;;;;;1.92;0.93;;;28.60;75.00;;;;;;10947266;32;20019;-73
2023/07/14 09:02:30;;;;;;;3.15;1.27;;;28.70;74.30;;;;;;10947490;32;20023;-73
2023/07/14 09:08:32;;;;;;;1.00;0.50;;;28.90;74.10;;;;;;10945452;32;20333;-73
2023/07/14 09:15:00;;;;;;;0.82;0.47;;;29.00;75.90;;;;;;10946887;32;20027;-73
2023/07/14 09:21:17;;;;;;;2.45;0.82;;;29.10;74.50;;;;;;10946893;32;20427;-73
2023/07/14 09:27:26;;;;;;;1.57;0.90;;;29.20;74.50;;;;;;10934252;32;20029;-73
2023/07/14 09:33:31;;;;;;;1.92;1.17;;;29.30;74.50;;;;;;10946408;32;20015;-73
2023/07/14 09:39:39;;;;;;;1.20;0.73;;;29.40;74.30;;;;;;10945639;32;20400;-73
2023/07/14 09:45:42;;;;;;;0.77;0.73;;;29.40;73.30;;;;;;10938147;32;20028;-71
2023/07/14 09:52:01;;;;;;;1.30;0.95;;;29.60;73.40;;;;;;10923754;32;20357;-73
2023/07/14 09:58:12;;;;;;;2.55;1.02;;;29.70;70.90;;;;;;10893852;32;20031;-72
2023/07/14 10:04:15;;;;;;;0.95;0.62;;;29.80;73.60;;;;;;10908800;32;20023;-72
2023/07/14 10:10:25;;;;;;;1.50;0.98;;;30.00;73.30;;;;;;10907022;32;20015;-73
2023/07/14 10:16:33;;;;;;;1.23;0.85;;;30.10;71.10;;;;;;10903506;32;20326;-72
2023/07/14 10:22:37;;;;;;;1.17;0.82;;;30.30;71.20;;;;;;10906762;32;20066;-74
2023/07/14 10:28:39;;;;;;;0.88;0.70;;;30.30;71.70;;;;;;10906725;32;20325;-73
2023/07/14 10:34:58;;;;;;;1.23;0.62;;;30.40;69.30;;;;;;10906569;32;20046;-73
2023/07/14 10:41:03;;;;;;;1.05;0.82;;;30.60;70.90;;;;;;10904376;32;20023;-71
2023/07/14 10:47:16;;;;;;;1.15;0.90;;;30.70;70.80;;;;;;10905980;32;20393;-70
2023/07/14 10:53:31;;;;;;;1.12;0.80;;;30.80;70.90;;;;;;10905996;32;20034;-70
2023/07/14 10:59:44;;;;;;;2.17;1.05;;;30.90;71.50;;;;;;10905749;32;20260;-73
2023/07/14 11:06:04;;;;;;;2.05;1.05;;;31.00;70.00;;;;;;10891618;32;20366;-71
2023/07/14 11:12:44;;;;;;;1.65;0.68;;;31.30;70.80;;;;;;10905296;32;20050;-71
2023/07/14 11:19:06;;;;;;;1.15;0.68;;;31.50;70.20;;;;;;10901750;32;20023;-72
2023/07/14 11:25:24;;;;;;;3.58;1.37;;;31.80;68.10;;;;;;10890906;32;20039;-71
2023/07/14 11:31:33;;;;;;;1.42;0.90;;;31.80;65.60;;;;;;10902998;32;20034;-71
2023/07/14 11:37:46;;;;;;;2.30;1.30;;;32.10;67.00;;;;;;10891338;32;20139;-71
2023/07/14 11:43:49;;;;;;;2.35;1.12;;;32.10;67.80;;;;;;10891229;32;20326;-72
2023/07/14 11:49:54;;;;;;;2.20;1.15;;;32.20;67.20;;;;;;10904405;32;20057;-72
2023/07/14 11:56:30;;;;;;;3.60;1.20;;;32.30;65.00;;;;;;10904254;32;20012;-73
2023/07/14 12:02:35;;;;;;;2.12;0.80;;;32.50;63.00;;;;;;10911563;32;20353;-71
2023/07/14 12:08:42;;;;;;;2.08;1.33;;;32.70;61.70;;;;;;10914607;32;20337;-71
2023/07/14 12:14:48;;;;;;;3.08;0.75;;;32.90;60.40;;;;;;10914106;32;20023;-73
2023/07/14 12:20:50;;;;;;;2.05;1.23;;;32.90;59.90;;;;;;10916201;32;20413;-71
2023/07/14 12:27:16;;;;;;;2.08;1.15;;;32.90;59.50;;;;;;10916025;32;20023;-73
2023/07/14 12:33:21;;;;;;;2.00;1.10;;;32.90;58.70;;;;;;10914249;32;20334;-73
2023/07/14 12:39:23;;;;;;;2.65;1.17;;;33.10;58.10;;;;;;10902041;32;20050;-71
2023/07/14 12:45:25;;;;;;;1.77;1.10;;;33.10;60.80;;;;;;10915690;32;20027;-73
2023/07/14 12:51:29;;;;;;;1.52;0.90;;;33.10;60.10;;;;;;10900773;32;20027;-73
2023/07/14 12:57:35;;;;;;;2.53;1.40;;;33.10;57.40;;;;;;10915530;32;20046;-73
2023/07/14 13:03:38;;;;;;;1.85;1.20;;;33.10;57.40;;;;;;10915426;32;20027;-73
2023/07/14 13:09:42;;;;;;;2.53;1.40;;;33.10;56.90;;;;;;10914114;32;20442;-73
2023/07/14 13:15:44;;;;;;;1.95;1.20;;;33.10;57.90;;;;;;10909401;32;20018;-72
2023/07/14 13:21:50;;;;;;;1.62;0.93;;;33.00;56.20;;;;;;10909857;32;20024;-73
2023/07/14 13:27:52;;;;;;;4.53;1.15;;;33.00;56.60;;;;;;10909970;32;20027;-73
2023/07/14 13:33:57;;;;;;;3.10;1.42;;;33.00;58.00;;;;;;10897318;32;20046;-72
2023/07/14 13:40:01;;;;;;;5.18;1.27;;;32.90;57.50;;;;;;10909019;32;20042;-71
2023/07/14 13:46:12;;;;;;;1.70;1.10;;;33.10;56.80;;;;;;10910189;32;20346;-73
2023/07/14 13:52:18;;;;;;;1.52;0.80;;;33.10;55.90;;;;;;10907757;32;20325;-72
2023/07/14 13:58:20;;;;;;;1.92;1.15;;;33.20;57.00;;;;;;10909197;32;20054;-73
2023/07/14 14:04:22;;;;;;;1.98;1.02;;;33.00;55.60;;;;;;10908775;32;20420;-70
2023/07/14 14:10:29;;;;;;;1.98;0.98;;;33.00;60.40;;;;;;10909325;32;20107;-73
2023/07/14 14:16:32;;;;;;;2.62;1.35;;;32.90;62.40;;;;;;10893561;32;20071;-72
2023/07/14 14:22:34;;;;;;;2.30;1.10;;;32.90;62.40;;;;;;10907349;32;20058;-73
2023/07/14 14:28:36;;;;;;;3.37;1.50;;;32.90;62.20;;;;;;10907670;32;20019;-73
2023/07/14 14:34:38;;;;;;;2.05;1.33;;;32.90;60.60;;;;;;10905196;32;20027;-71
2023/07/14 14:40:41;;;;;;;2.47;1.30;;;32.90;62.20;;;;;;10906932;32;20444;-72
2023/07/14 14:46:44;;;;;;;3.60;1.77;;;32.90;61.00;;;;;;10907256;32;20428;-73
2023/07/14 14:52:48;;;;;;;2.20;1.20;;;32.90;60.40;;;;;;10906651;32;20030;-73
2023/07/14 14:58:55;;;;;;;4.03;1.17;;;33.00;59.90;;;;;;10907711;32;20015;-72
2023/07/14 15:04:57;;;;;;;;;;;32.90;59.90;;;;;;10906395;32;20019;-73
2023/07/14 15:10:59;;;;;;;4.75;1.42;;;32.90;59.50;;;;;;10906206;32;19926;-73
2023/07/14 15:17:21;;;;;;;2.60;1.42;;;32.90;59.80;;;;;;10892964;32;20421;-72
2023/07/14 15:23:23;;;;;;;2.85;1.67;;;32.90;60.40;;;;;;10901535;32;20015;-72
2023/07/14 15:29:25;;;;;;;3.75;1.70;;;32.90;59.30;;;;;;10924952;27;20349;-72
2023/07/14 15:35:33;;;;;;;1.17;0.82;;;32.90;59.50;;;;;;10942316;32;20062;-73
2023/07/14 15:41:35;;;;;;;2.60;1.02;;;32.90;58.20;;;;;;10940437;32;20045;-73
2023/07/14 15:47:38;;;;;;;2.72;1.20;;;32.90;58.70;;;;;;10943307;32;20041;-73
2023/07/14 15:53:41;;;;;;;4.35;1.75;;;32.90;58.80;;;;;;10942506;32;20033;-73
2023/07/14 15:59:43;;;;;;;2.95;1.42;;;33.00;58.50;;;;;;10942961;32;20396;-72
2023/07/14 16:05:46;;;;;;;4.55;1.48;;;33.00;57.90;;;;;;10942179;32;20423;-73
2023/07/14 16:11:48;;;;;;;2.78;1.55;;;33.00;58.30;;;;;;10942765;32;20023;-73
2023/07/14 16:17:51;;;;;;;2.87;1.23;;;33.10;57.90;;;;;;10942793;32;20045;-73
2023/07/14 16:23:54;;;;;;;5.35;1.58;;;33.20;57.50;;;;;;10937030;32;20054;-73
2023/07/14 16:29:56;;;;;;;2.65;1.20;;;33.10;57.00;;;;;;10941730;32;20393;-73
2023/07/14 16:35:58;;;;;;;3.12;1.80;;;33.20;57.00;;;;;;10942401;32;20428;-73
2023/07/14 16:42:00;;;;;;;3.22;1.48;;;33.20;56.80;;;;;;10927049;32;20393;-73
2023/07/14 16:48:03;;;;;;;5.15;1.83;;;33.20;56.50;;;;;;10932440;32;20031;-73
2023/07/14 16:54:27;;;;;;;2.92;1.83;;;33.20;56.50;;;;;;10948525;32;20023;-73
2023/07/14 17:00:31;;;;;;;2.00;1.33;;;33.10;56.40;;;;;;10948933;32;20015;-73
2023/07/14 17:06:34;;;;;;;1.65;1.05;;;33.10;56.40;;;;;;10935308;32;20045;-73
2023/07/14 17:12:36;;;;;;;3.40;1.62;;;33.10;57.00;;;;;;10945721;32;20030;-73
2023/07/14 17:18:38;;;;;;;4.45;1.98;;;33.10;56.80;;;;;;10948348;32;20034;-73
2023/07/14 17:24:42;;;;;;;2.05;1.35;;;33.10;56.80;;;;;;10933414;32;20023;-73
2023/07/14 17:30:51;;;;;;;2.45;1.27;;;33.10;56.90;;;;;;10946662;32;20404;-73
2023/07/14 17:36:54;;;;;;;2.28;1.48;;;33.00;56.90;;;;;;10946536;32;20345;-73
2023/07/14 17:42:58;;;;;;;2.60;1.30;;;33.10;57.00;;;;;;10932462;32;20447;-73
2023/07/14 17:49:01;;;;;;;1.55;0.90;;;33.10;57.00;;;;;;10945895;32;20023;-73
2023/07/14 17:55:05;;;;;;;2.65;1.17;;;33.10;56.50;;;;;;10929366;32;20404;-73
2023/07/14 18:01:14;;;;;;;1.80;1.10;;;33.40;55.70;;;;;;10945561;32;20401;-73
2023/07/14 18:07:16;;;;;;;2.95;1.12;;;33.70;55.20;;;;;;10945383;32;20045;-74
2023/07/14 18:13:38;;;;;;;2.35;1.27;;;33.60;55.50;;;;;;10931723;32;20018;-74
2023/07/14 18:19:41;;;;;;;1.55;0.82;;;33.10;56.50;;;;;;10944961;32;20015;-73
2023/07/14 18:25:43;;;;;;;2.30;0.82;;;32.80;57.40;;;;;;10944665;32;20022;-74
2023/07/14 18:31:47;;;;;;;3.55;1.55;;;32.40;58.10;;;;;;10944624;32;20042;-73
2023/07/14 18:37:57;;;;;;;4.53;1.27;;;32.20;58.70;;;;;;10930906;32;20023;-73
2023/07/14 18:43:59;;;;;;;1.40;0.77;;;32.00;59.40;;;;;;10943980;32;20018;-74
2023/07/14 18:50:01;;;;;;;1.75;1.05;;;31.80;60.40;;;;;;10926358;32;20023;-74
2023/07/14 18:56:05;;;;;;;3.12;1.70;;;31.70;61.20;;;;;;10940536;32;20054;-74
2023/07/14 19:02:31;;;;;;;1.65;1.25;;;31.50;62.00;;;;;;10941774;32;20049;-74
2023/07/14 19:08:50;;;;;;;3.03;1.10;;;31.40;62.90;;;;;;10929556;32;20333;-74
2023/07/14 19:14:52;;;;;;;1.62;1.10;;;31.30;63.30;;;;;;10943209;32;20062;-74
2023/07/14 19:21:00;;;;;;;2.53;1.23;;;31.10;64.20;;;;;;10941214;32;20022;-74
2023/07/14 19:27:03;;;;;;;2.10;1.17;;;31.10;64.80;;;;;;10942562;32;20042;-73
2023/07/14 19:33:13;;;;;;;2.37;1.00;;;31.00;65.30;;;;;;10942430;32;20046;-73
2023/07/14 19:39:17;;;;;;;2.55;1.15;;;30.80;65.80;;;;;;10942202;32;20041;-73
2023/07/14 19:45:24;;;;;;;2.25;1.42;;;30.80;66.50;;;;;;10942105;32;20053;-73
2023/07/14 19:51:26;;;;;;;3.17;1.15;;;30.70;66.80;;;;;;10942077;32;20011;-73
2023/07/14 19:57:28;;;;;;;1.77;0.88;;;30.60;67.50;;;;;;10941816;32;20286;-73
2023/07/14 20:03:32;;;;;;;2.08;1.10;;;30.40;67.90;;;;;;10941683;32;20081;-73
2023/07/14 20:09:36;;;;;;;4.12;1.65;;;30.40;68.30;;;;;;10927615;32;20340;-73
2023/07/14 20:15:38;;;;;;;1.95;1.12;;;30.30;68.70;;;;;;10941425;32;20045;-73
2023/07/14 20:21:40;;;;;;;3.70;1.73;;;30.30;69.60;;;;;;10945779;32;20432;-73
2023/07/14 20:27:43;;;;;;;2.97;1.25;;;30.20;70.40;;;;;;10935352;32;20051;-73
2023/07/14 20:33:46;;;;;;;2.62;1.33;;;30.10;70.70;;;;;;10948811;32;20018;-73
2023/07/14 20:39:49;;;;;;;1.60;1.48;;;30.10;71.60;;;;;;10948524;32;20418;-73
2023/07/14 20:45:52;;;;;;;1.70;1.20;;;30.00;71.50;;;;;;10944069;32;20094;-73
2023/07/14 20:51:56;;;;;;;3.30;1.87;;;29.80;71.80;;;;;;10948064;32;20015;-73
2023/07/14 20:58:02;;;;;;;7.75;2.12;;;29.80;72.20;;;;;;10947774;32;20027;-73
2023/07/14 21:04:24;;;;;;;6.22;1.95;;;29.70;72.20;;;;;;10947526;32;20019;-73
2023/07/14 21:10:26;;;;;;;3.22;1.75;;;29.70;72.70;;;;;;10934065;32;20011;-73
2023/07/14 21:16:47;;;;;;;2.85;1.65;;;29.70;72.90;;;;;;10947207;32;20011;-74
2023/07/14 21:22:51;;;;;;;4.18;1.80;;;29.60;73.10;;;;;;10946928;32;20019;-74
2023/07/14 21:28:55;;;;;;;4.03;1.73;;;29.50;73.30;;;;;;10945216;32;20054;-74
2023/07/14 21:34:57;;;;;;;4.85;1.77;;;29.50;73.70;;;;;;10932276;32;20302;-74
2023/07/14 21:41:03;;;;;;;13.43;2.17;;;29.40;73.90;;;;;;10933097;32;20038;-73
2023/07/14 21:47:05;;;;;;;5.12;2.45;;;29.40;73.80;;;;;;10946250;32;20019;-73
2023/07/14 21:53:21;;;;;;;3.97;1.73;;;29.30;73.90;;;;;;10945366;32;20435;-73
2023/07/14 21:59:23;;;;;;;4.30;1.73;;;29.30;74.30;;;;;;10943107;32;20432;-73
2023/07/14 22:05:25;;;;;;;2.80;1.70;;;29.20;75.10;;;;;;10945531;32;20053;-73
2023/07/14 22:11:28;;;;;;;4.85;1.62;;;29.10;75.10;;;;;;10944494;32;20053;-73
2023/07/14 22:17:30;;;;;;;3.35;1.98;;;28.90;75.30;;;;;;10944775;32;20023;-73
2023/07/14 22:23:33;;;;;;;6.47;2.12;;;28.80;75.60;;;;;;10942474;32;20026;-73
2023/07/14 22:29:39;;;;;;;2.42;1.40;;;28.80;75.70;;;;;;10930444;32;20314;-73
2023/07/14 22:35:41;;;;;;;3.75;1.92;;;28.70;75.80;;;;;;10925492;32;20030;-73
2023/07/14 22:41:44;;;;;;;5.12;1.98;;;28.70;76.10;;;;;;10941131;32;20062;-73
2023/07/14 22:47:48;;;;;;;4.45;1.62;;;28.70;75.80;;;;;;10943960;32;20022;-73
2023/07/14 22:53:51;;;;;;;5.15;2.33;;;28.80;75.60;;;;;;10930012;32;20027;-73
2023/07/14 22:59:53;;;;;;;2.83;1.70;;;28.60;75.90;;;;;;10940265;32;20053;-73
2023/07/14 23:06:03;;;;;;;3.65;2.00;;;28.50;76.10;;;;;;10943303;32;20038;-73
2023/07/14 23:12:05;;;;;;;3.25;1.83;;;28.50;76.70;;;;;;10940210;32;20045;-73
2023/07/14 23:18:08;;;;;;;3.62;2.25;;;28.40;76.70;;;;;;10929481;32;20011;-73
2023/07/14 23:24:16;;;;;;;8.18;2.55;;;28.30;77.00;;;;;;10928957;32;20361;-73
2023/07/14 23:30:18;;;;;;;5.15;2.03;;;28.30;77.10;;;;;;10194670;32;22578605;-73
2023/07/14 23:36:21;;;;;;;3.33;1.98;;;28.30;77.30;;;;;;10827373;32;20028;-73
2023/07/14 23:42:23;;;;;;;7.72;2.33;;;28.30;77.80;;;;;;10826574;32;20454;-73
2023/07/14 23:48:26;;;;;;;2.60;1.83;;;28.10;77.80;;;;;;10826641;32;20023;-73
2023/07/14 23:54:29;;;;;;;9.23;2.80;;;28.10;77.90;;;;;;10836577;32;20027;-73
